Huntsville Municipal Airport Huntsville US
ICAO: KUTS
IATA: UTS
Category: Medium
Scheduled Services: No

Elevation: 363 ft
TransAlt. 18000 ft.

Airport Communications:
ASOS:119.425
HOUSTON CNTR:134.8
MONTGOMERY CO RDO:122.3
CTAF/UNICOM:122.8

KUTS Zoom In..

If you have problems with the map follow the link
https://www.worldairports.se/pages/airport.php?
ICAO=KUTS

Runways:

(A) RW 18 length 5005 ft width 100 ft
---- / hdg 180

(B) RW 36 length 5005 ft width 100 ft
---- / hdg 360

Location; KUTS
Day. 18 / Time. 06.53 Zulu
* Altimeter: 30.29
* Temperature: 13° c. 55.4°f.
* Wind from: VRB° Speed 04 kn.
Dewpoint: 10° c.
Visibility: 10 Statute Miles.
Clouds: Overcast 1800 ft.

KUTS 180653Z AUTO VRB04KT 10SM OVC018 13/10 A3029 RMK AO2 SLP257 T01330100


Wind From VRB°
Speed 04 kn.

 
 
jpsmedia.com for Web Design worldairports.se 2018   terms of use